Time;durP1;ratioP1;P1;durP2;ratioP2;P2;SDS_P1;SDS_P2;PMS_P1;PMS_P2;Temp;Humidity;BMP_temperature;BMP_pressure;BME280_temperature;BME280_humidity;BME280_pressure;Samples;Min_cycle;Max_cycle;Signal;HPM_P1;HPM_P2
2022/02/23 00:07:42;;;;;;;9.8;15.2;;;;;;;2.8;67.3;98650;;;;
2022/02/23 00:17:42;;;;;;;9.8;15.2;;;;;;;2.9;66.7;98630;;;;
2022/02/23 00:28:42;;;;;;;9.8;15.2;;;;;;;2.9;66.7;98620;;;;
2022/02/23 00:38:42;;;;;;;8.5;15.6;;;;;;;2.9;65.9;98600;;;;
2022/02/23 00:49:42;;;;;;;8.5;15.6;;;;;;;2.8;65.8;98580;;;;
2022/02/23 01:00:42;;;;;;;7.6;14.1;;;;;;;2.8;66.1;98560;;;;
2022/02/23 01:10:42;;;;;;;7.6;14.1;;;;;;;2.8;65.7;98570;;;;
2022/02/23 01:21:42;;;;;;;7.6;14.1;;;;;;;2.8;65.6;98560;;;;
2022/02/23 01:31:42;;;;;;;6.4;9.2;;;;;;;2.9;65.3;98550;;;;
2022/02/23 01:41:42;;;;;;;6.4;9.2;;;;;;;3;64.9;98530;;;;
2022/02/23 01:51:42;;;;;;;6.4;9.2;;;;;;;3.1;64.5;98510;;;;
2022/02/23 02:01:42;;;;;;;6.5;12.9;;;;;;;3.2;64.2;98510;;;;
2022/02/23 02:11:42;;;;;;;6.5;12.9;;;;;;;3.2;64.5;98500;;;;
2022/02/23 02:21:42;;;;;;;6.5;12.9;;;;;;;3.2;64.3;98490;;;;
2022/02/23 02:32:42;;;;;;;6.2;11.9;;;;;;;3.2;64.4;98470;;;;
2022/02/23 02:43:42;;;;;;;6.2;11.9;;;;;;;2.9;65.1;98460;;;;
2022/02/23 02:53:42;;;;;;;6.2;11.9;;;;;;;2.6;66.2;98460;;;;
2022/02/23 03:04:42;;;;;;;6.1;11.2;;;;;;;2.6;66.5;98460;;;;
2022/02/23 03:14:42;;;;;;;6.1;11.2;;;;;;;2.7;66.6;98470;;;;
2022/02/23 03:25:42;;;;;;;6.1;11.2;;;;;;;3;66.3;98460;;;;
2022/02/23 03:36:42;;;;;;;4.9;12.8;;;;;;;3.2;66.8;98450;;;;
2022/02/23 03:47:42;;;;;;;4.9;12.8;;;;;;;3.4;66.7;98460;;;;
2022/02/23 03:57:42;;;;;;;4.9;12.8;;;;;;;3.5;67.2;98460;;;;
2022/02/23 04:08:42;;;;;;;5;11.8;;;;;;;3.6;68.1;98460;;;;
2022/02/23 04:19:42;;;;;;;5;11.8;;;;;;;3.8;68.8;98480;;;;
2022/02/23 04:29:42;;;;;;;4.5;9.2;;;;;;;3.9;71;98500;;;;
2022/02/23 04:39:42;;;;;;;4.5;9.2;;;;;;;3.8;73.1;98520;;;;
2022/02/23 04:50:42;;;;;;;4.5;9.2;;;;;;;3.8;74.8;98520;;;;
2022/02/23 05:00:42;;;;;;;4.8;8.9;;;;;;;3.7;76.5;98530;;;;
2022/02/23 05:10:42;;;;;;;4.8;8.9;;;;;;;3.8;78.6;98540;;;;
2022/02/23 05:20:42;;;;;;;4.8;8.9;;;;;;;3.9;80.1;98560;;;;
2022/02/23 05:30:42;;;;;;;4.2;8;;;;;;;3.9;81.4;98560;;;;
2022/02/23 06:46:35;;;;;;;7.5;15.9;;;;;;;4.3;83.3;98680;;;;
2022/02/23 06:56:36;;;;;;;7.5;15.9;;;;;;;4.5;82.5;98700;;;;
2022/02/23 07:07:35;;;;;;;7.5;15.9;;;;;;;4.7;81;98720;;;;
2022/02/23 07:18:36;;;;;;;7.1;11.9;;;;;;;4.8;80.8;98740;;;;
2022/02/23 07:28:36;;;;;;;7.1;11.9;;;;;;;5;79.3;98770;;;;
2022/02/23 07:38:37;;;;;;;7.1;11.9;;;;;;;5.1;78.5;98800;;;;
2022/02/23 07:49:35;;;;;;;6.9;12.1;;;;;;;5.4;77.7;98830;;;;
2022/02/23 07:59:35;;;;;;;6.9;12.1;;;;;;;5.3;78;98840;;;;
2022/02/23 08:10:35;;;;;;;6.9;12.1;;;;;;;5.3;78;98870;;;;
2022/02/23 08:21:35;;;;;;;7.1;13.8;;;;;;;5.3;76.8;98900;;;;
2022/02/23 08:31:36;;;;;;;7.1;13.8;;;;;;;4.3;77.8;98920;;;;
2022/02/23 08:41:36;;;;;;;5.7;13.3;;;;;;;4.8;75.7;98930;;;;
2022/02/23 08:51:35;;;;;;;5.7;13.3;;;;;;;5.5;72.3;98960;;;;
2022/02/23 09:01:35;;;;;;;5.7;13.3;;;;;;;6;69.4;98970;;;;
2022/02/23 09:12:35;;;;;;;5.1;8.8;;;;;;;6.4;67.6;98980;;;;
2022/02/23 09:22:35;;;;;;;5.1;8.8;;;;;;;6.3;68.6;99000;;;;
2022/02/23 09:32:36;;;;;;;5.1;8.8;;;;;;;5.1;73.7;99030;;;;
2022/02/23 09:43:35;;;;;;;4.3;8.7;;;;;;;5.3;74.8;99040;;;;
2022/02/23 09:54:35;;;;;;;4.3;8.7;;;;;;;5.6;74.8;99040;;;;
2022/02/23 10:04:35;;;;;;;4.3;8.7;;;;;;;6.1;72.8;99020;;;;
2022/02/23 10:15:35;;;;;;;5;8.7;;;;;;;6.8;68.8;99030;;;;
2022/02/23 10:26:35;;;;;;;5;8.7;;;;;;;6.5;67.4;99020;;;;
2022/02/23 10:36:35;;;;;;;5;8.7;;;;;;;6.7;65.9;99040;;;;
2022/02/23 10:46:37;;;;;;;5.1;10.6;;;;;;;6.6;65.9;99070;;;;
2022/02/23 10:57:35;;;;;;;5.1;10.6;;;;;;;5.9;71.7;99060;;;;
2022/02/23 11:08:35;;;;;;;5.1;10.6;;;;;;;6.4;69.2;99060;;;;
2022/02/23 11:18:35;;;;;;;6.6;10.1;;;;;;;6.8;65.6;99070;;;;
2022/02/23 11:29:36;;;;;;;6.6;10.1;;;;;;;7;64.6;99070;;;;
2022/02/23 11:39:38;;;;;;;6.6;10.1;;;;;;;7.1;65.1;99080;;;;
2022/02/23 11:50:35;;;;;;;4.4;9.2;;;;;;;7.2;64;99080;;;;
2022/02/23 12:01:35;;;;;;;4.4;9.2;;;;;;;7.7;62.6;99090;;;;
2022/02/23 12:11:36;;;;;;;3.6;7.5;;;;;;;8.5;61;99090;;;;
2022/02/23 12:22:35;;;;;;;3.6;7.5;;;;;;;7.4;63.5;99130;;;;
2022/02/23 12:33:35;;;;;;;3.6;7.5;;;;;;;4.6;77.6;99150;;;;
2022/02/23 12:43:35;;;;;;;3.7;5.9;;;;;;;4.5;78.5;99140;;;;
2022/02/23 12:54:36;;;;;;;3.7;5.9;;;;;;;4.9;78;99130;;;;
2022/02/23 13:04:35;;;;;;;3.7;5.9;;;;;;;5.4;75.8;99120;;;;
2022/02/23 13:15:36;;;;;;;5.6;11.4;;;;;;;5.4;75.7;99140;;;;
2022/02/23 13:25:35;;;;;;;5.6;11.4;;;;;;;5.7;73.1;99160;;;;
2022/02/23 13:35:35;;;;;;;5.6;11.4;;;;;;;6.1;69.3;99150;;;;
2022/02/23 13:46:35;;;;;;;5;9.8;;;;;;;6.5;67.7;99160;;;;
2022/02/23 13:56:35;;;;;;;5;9.8;;;;;;;6.7;64.8;99160;;;;
2022/02/23 14:07:36;;;;;;;5;9.8;;;;;;;7;65.6;99170;;;;
2022/02/23 14:18:37;;;;;;;4.6;10.6;;;;;;;7.2;61.5;99170;;;;
2022/02/23 14:28:37;;;;;;;4.6;10.6;;;;;;;7.3;59.3;99210;;;;
2022/02/23 14:39:35;;;;;;;4.6;10.6;;;;;;;7.5;62;99200;;;;
2022/02/23 14:50:35;;;;;;;4.6;8.9;;;;;;;7.4;59.2;99220;;;;
2022/02/23 15:00:35;;;;;;;4.6;8.9;;;;;;;7.1;60.2;99230;;;;
2022/02/23 15:11:35;;;;;;;4.3;8.4;;;;;;;7.2;59.7;99240;;;;
2022/02/23 15:21:35;;;;;;;4.3;8.4;;;;;;;6.9;59.5;99260;;;;
2022/02/23 15:31:38;;;;;;;4.3;8.4;;;;;;;6.6;61.8;99270;;;;
2022/02/23 15:41:36;;;;;;;7.9;13.6;;;;;;;6.3;63.2;99280;;;;
2022/02/23 15:52:36;;;;;;;7.9;13.6;;;;;;;6.2;62;99280;;;;
2022/02/23 16:03:37;;;;;;;7.9;13.6;;;;;;;6.3;60.4;99300;;;;
2022/02/23 16:14:35;;;;;;;5.6;13.9;;;;;;;6;61.2;99320;;;;
2022/02/23 16:24:35;;;;;;;5.6;13.9;;;;;;;5.8;60.3;99340;;;;
2022/02/23 16:34:36;;;;;;;5.6;13.9;;;;;;;5.7;59.7;99350;;;;
2022/02/23 16:44:36;;;;;;;7.1;12.6;;;;;;;5.5;61.1;99370;;;;
2022/02/23 16:54:35;;;;;;;7.1;12.6;;;;;;;5.2;62.2;99380;;;;
2022/02/23 17:04:36;;;;;;;7.1;12.6;;;;;;;5.2;61.8;99390;;;;
2022/02/23 17:14:35;;;;;;;7;12.6;;;;;;;5.1;62.2;99390;;;;
2022/02/23 17:24:36;;;;;;;7;12.6;;;;;;;4.8;63.2;99410;;;;
2022/02/23 17:35:36;;;;;;;7;12.6;;;;;;;4.5;64.4;99430;;;;
2022/02/23 17:46:36;;;;;;;9.8;16.1;;;;;;;4.2;65.4;99440;;;;
2022/02/23 17:56:36;;;;;;;9.8;16.1;;;;;;;3.9;66.6;99450;;;;
2022/02/23 18:06:37;;;;;;;9.8;16.1;;;;;;;3.6;67.4;99460;;;;
2022/02/23 18:16:36;;;;;;;12.8;20;;;;;;;3.5;68;99480;;;;
2022/02/23 18:26:36;;;;;;;12.8;20;;;;;;;3.4;68.7;99490;;;;
2022/02/23 18:37:36;;;;;;;12.8;20;;;;;;;3.3;69.1;99500;;;;
2022/02/23 18:47:36;;;;;;;14.5;23.1;;;;;;;3.2;69.6;99520;;;;
2022/02/23 18:58:36;;;;;;;14.5;23.1;;;;;;;3.2;69.2;99530;;;;
2022/02/23 19:09:36;;;;;;;13.4;20.8;;;;;;;3.3;68.8;99550;;;;
2022/02/23 19:19:36;;;;;;;13.4;20.8;;;;;;;3.4;68.3;99560;;;;
2022/02/23 19:29:36;;;;;;;13.4;20.8;;;;;;;3.4;68.3;99570;;;;
2022/02/23 19:39:36;;;;;;;13.8;19.4;;;;;;;3.3;68;99580;;;;
2022/02/23 19:50:36;;;;;;;13.8;19.4;;;;;;;3.3;67.7;99580;;;;
2022/02/23 20:01:36;;;;;;;13.8;19.4;;;;;;;3.4;67.5;99590;;;;
2022/02/23 20:12:36;;;;;;;13.4;19.2;;;;;;;3.3;67.4;99600;;;;
2022/02/23 20:23:36;;;;;;;13.4;19.2;;;;;;;3.2;67.6;99600;;;;
2022/02/23 20:34:36;;;;;;;13.4;19.2;;;;;;;3.2;67.5;99600;;;;
2022/02/23 20:44:36;;;;;;;14.7;22.9;;;;;;;3.1;67.6;99600;;;;
2022/02/23 20:54:36;;;;;;;14.7;22.9;;;;;;;3.1;67.6;99610;;;;
2022/02/23 21:04:36;;;;;;;14.7;22.9;;;;;;;2.9;68;99600;;;;
2022/02/23 21:14:36;;;;;;;14.2;18.8;;;;;;;2.8;68.2;99610;;;;
2022/02/23 21:25:36;;;;;;;14.2;18.8;;;;;;;2.4;69;99620;;;;
2022/02/23 21:35:36;;;;;;;14.2;18.8;;;;;;;2.2;69.7;99620;;;;
2022/02/23 21:45:36;;;;;;;15.6;25.7;;;;;;;2.1;70.3;99620;;;;
2022/02/23 21:56:36;;;;;;;15.6;25.7;;;;;;;2;70.9;99630;;;;
2022/02/23 22:06:36;;;;;;;15.6;25.7;;;;;;;1.8;71.3;99630;;;;
2022/02/23 22:17:36;;;;;;;17.7;24.7;;;;;;;1.6;71.9;99640;;;;
2022/02/23 22:27:36;;;;;;;17.7;24.7;;;;;;;1.4;72.6;99650;;;;
2022/02/23 22:37:36;;;;;;;17.7;24.7;;;;;;;1.4;72.7;99660;;;;
2022/02/23 22:47:36;;;;;;;17.4;26.1;;;;;;;1.3;73;99650;;;;
2022/02/23 22:57:36;;;;;;;17.4;26.1;;;;;;;1;73.2;99640;;;;
2022/02/23 23:07:36;;;;;;;17.4;26.1;;;;;;;0.8;73.5;99630;;;;
2022/02/23 23:17:36;;;;;;;16.6;30;;;;;;;0.7;74.1;99620;;;;
2022/02/23 23:27:36;;;;;;;16.6;30;;;;;;;0.5;74.6;99630;;;;
2022/02/23 23:38:37;;;;;;;16.5;27.1;;;;;;;0.3;74.6;99630;;;;
2022/02/23 23:48:36;;;;;;;16.5;27.1;;;;;;;0.2;75.3;99620;;;;
2022/02/23 23:58:36;;;;;;;16.5;27.1;;;;;;;0.1;75.7;99620;;;;
